createdAt,value
2023-04-18T00:01:44.805Z,4.30
2023-04-18T00:04:13.620Z,4.60
2023-04-18T00:06:40.861Z,4.47
2023-04-18T00:09:07.583Z,4.70
2023-04-18T00:11:34.981Z,4.47
2023-04-18T00:14:03.385Z,4.67
2023-04-18T00:16:30.619Z,5.20
2023-04-18T00:18:57.579Z,5.43
2023-04-18T00:21:25.727Z,5.50
2023-04-18T00:23:52.700Z,5.20
2023-04-18T00:26:19.383Z,5.70
2023-04-18T00:28:46.162Z,5.17
2023-04-18T00:31:12.776Z,5.40
2023-04-18T00:33:39.463Z,5.33
2023-04-18T00:36:06.345Z,5.70
2023-04-18T00:38:32.976Z,5.43
2023-04-18T00:40:59.652Z,5.50
2023-04-18T00:43:26.868Z,5.40
2023-04-18T00:45:54.137Z,5.93
2023-04-18T00:48:21.060Z,5.63
2023-04-18T00:50:47.773Z,5.60
2023-04-18T00:53:15.525Z,5.10
2023-04-18T00:55:42.316Z,5.60
2023-04-18T00:58:09.383Z,5.50
2023-04-18T01:00:36.162Z,5.07
2023-04-18T01:03:03.191Z,5.47
2023-04-18T01:05:30.041Z,6.03
2023-04-18T01:08:01.046Z,5.97
2023-04-18T01:10:28.779Z,5.53
2023-04-18T01:13:14.982Z,5.57
2023-04-18T01:15:46.858Z,5.83
2023-04-18T01:18:17.044Z,5.10
2023-04-18T01:20:48.949Z,5.67
2023-04-18T01:23:17.562Z,5.90
2023-04-18T01:25:45.474Z,5.47
2023-04-18T01:28:14.361Z,5.23
2023-04-18T01:30:41.228Z,5.10
2023-04-18T01:33:07.999Z,6.03
2023-04-18T01:35:34.756Z,5.60
2023-04-18T01:38:01.510Z,6.00
2023-04-18T01:40:28.303Z,4.90
2023-04-18T01:42:54.927Z,5.73
2023-04-18T01:45:22.400Z,5.23
2023-04-18T01:47:49.187Z,5.50
2023-04-18T01:50:15.934Z,5.77
2023-04-18T01:52:42.758Z,6.10
2023-04-18T01:55:09.942Z,6.00
2023-04-18T01:57:36.956Z,5.10
2023-04-18T02:00:07.830Z,5.33
2023-04-18T02:02:34.777Z,5.13
2023-04-18T02:05:01.770Z,5.67
2023-04-18T02:07:28.499Z,5.83
2023-04-18T02:09:55.190Z,5.63
2023-04-18T02:12:21.801Z,5.40
2023-04-18T02:14:52.957Z,5.90
2023-04-18T02:17:21.547Z,6.10
2023-04-18T02:19:48.368Z,5.87
2023-04-18T02:22:14.975Z,6.27
2023-04-18T02:24:41.664Z,7.07
2023-04-18T02:27:08.419Z,7.20
2023-04-18T02:29:35.224Z,7.40
2023-04-18T02:32:01.972Z,7.13
2023-04-18T02:34:28.883Z,7.50
2023-04-18T02:36:55.657Z,8.47
2023-04-18T02:39:22.267Z,7.90
2023-04-18T02:41:48.956Z,7.63
2023-04-18T02:44:17.063Z,7.20
2023-04-18T02:46:43.758Z,7.53
2023-04-18T02:49:10.589Z,7.47
2023-04-18T02:51:37.303Z,8.03
2023-04-18T02:54:03.983Z,7.93
2023-04-18T02:56:30.691Z,7.93
2023-04-18T02:58:57.321Z,7.40
2023-04-18T03:01:24.031Z,7.50
2023-04-18T03:03:50.918Z,7.40
2023-04-18T03:06:17.569Z,8.33
2023-04-18T03:08:44.309Z,8.20
2023-04-18T03:11:10.954Z,7.93
2023-04-18T03:13:37.655Z,8.60
2023-04-18T03:16:04.736Z,8.70
2023-04-18T03:18:31.474Z,8.70
2023-04-18T03:20:58.125Z,9.20
2023-04-18T03:23:24.806Z,8.63
2023-04-18T03:25:51.586Z,9.03
2023-04-18T03:28:18.325Z,8.83
2023-04-18T03:30:45.172Z,8.80
2023-04-18T03:33:11.938Z,9.10
2023-04-18T03:35:38.654Z,8.97
2023-04-18T03:38:05.464Z,8.33
2023-04-18T03:40:32.169Z,8.57
2023-04-18T03:43:00.028Z,8.70
2023-04-18T03:45:26.697Z,8.33
2023-04-18T03:47:53.569Z,9.03
2023-04-18T03:50:20.425Z,8.70
2023-04-18T03:52:48.222Z,9.00
2023-04-18T03:55:14.949Z,9.87
2023-04-18T03:57:41.561Z,9.33
2023-04-18T04:00:08.923Z,8.97
2023-04-18T04:02:36.935Z,9.53
2023-04-18T04:05:05.069Z,9.43
2023-04-18T04:07:32.621Z,9.87
2023-04-18T04:09:59.303Z,9.47
2023-04-18T04:12:25.918Z,9.60
2023-04-18T04:14:52.966Z,9.47
2023-04-18T04:17:19.667Z,9.80
2023-04-18T04:19:46.350Z,9.73
2023-04-18T04:22:13.036Z,10.10
2023-04-18T04:24:40.462Z,10.03
2023-04-18T04:27:08.161Z,10.03
2023-04-18T04:29:35.455Z,10.47
2023-04-18T04:32:02.222Z,10.50
2023-04-18T04:34:28.972Z,10.07
2023-04-18T04:36:55.690Z,9.97
2023-04-18T04:39:22.332Z,9.93
2023-04-18T04:41:49.485Z,9.90
2023-04-18T04:44:17.777Z,10.33
2023-04-18T04:46:44.814Z,11.07
2023-04-18T04:49:12.212Z,10.13
2023-04-18T04:51:40.149Z,10.03
2023-04-18T04:54:06.852Z,11.10
2023-04-18T04:56:33.582Z,10.40
2023-04-18T04:59:00.936Z,11.37
2023-04-18T05:01:27.650Z,10.60
2023-04-18T05:03:54.894Z,10.97
2023-04-18T05:06:22.859Z,10.97
2023-04-18T05:08:50.770Z,11.30
2023-04-18T05:11:18.009Z,11.10
2023-04-18T05:13:44.718Z,10.77
2023-04-18T05:16:11.573Z,10.13
2023-04-18T05:18:40.376Z,11.10
2023-04-18T05:21:07.470Z,10.83
2023-04-18T05:23:37.327Z,10.50
2023-04-18T05:26:05.415Z,10.47
2023-04-18T05:28:32.147Z,10.27
2023-04-18T05:31:01.732Z,10.37
2023-04-18T05:33:29.404Z,9.83
2023-04-18T05:35:56.339Z,10.23
2023-04-18T05:38:23.358Z,10.87
2023-04-18T05:40:55.615Z,11.23
2023-04-18T05:43:22.966Z,11.00
2023-04-18T05:45:50.652Z,11.30
2023-04-18T05:48:17.341Z,10.37
2023-04-18T05:50:43.960Z,10.73
2023-04-18T05:53:10.863Z,10.60
2023-04-18T05:55:37.683Z,10.13
2023-04-18T05:58:04.478Z,10.73
2023-04-18T06:00:31.544Z,10.30
2023-04-18T06:02:58.419Z,9.97
2023-04-18T06:05:25.502Z,10.10
2023-04-18T06:07:52.426Z,10.90
2023-04-18T06:10:19.308Z,11.33
2023-04-18T06:12:46.050Z,10.87
2023-04-18T06:15:12.778Z,11.03
2023-04-18T06:17:39.620Z,10.67
2023-04-18T06:20:07.025Z,10.57
2023-04-18T06:22:36.364Z,11.00
2023-04-18T06:25:03.489Z,10.57
2023-04-18T06:27:31.908Z,10.70
2023-04-18T06:29:59.114Z,10.90
2023-04-18T06:32:26.039Z,11.53
2023-04-18T06:34:53.176Z,10.27
2023-04-18T06:37:20.239Z,10.57
2023-04-18T06:39:47.102Z,11.13
2023-04-18T06:42:13.867Z,10.40
2023-04-18T06:44:43.060Z,10.20
2023-04-18T06:47:10.842Z,10.03
2023-04-18T06:49:37.625Z,10.37
2023-04-18T06:52:04.374Z,10.07
2023-04-18T06:54:31.025Z,10.57
2023-04-18T06:56:58.058Z,9.97
2023-04-18T06:59:24.648Z,10.30
2023-04-18T07:01:51.556Z,10.57
2023-04-18T07:04:18.838Z,9.67
2023-04-18T07:06:45.853Z,10.63
2023-04-18T07:09:12.494Z,10.43
2023-04-18T07:11:40.680Z,10.97
2023-04-18T07:14:07.363Z,10.00
2023-04-18T07:16:34.756Z,9.90
2023-04-18T07:19:01.503Z,10.43
2023-04-18T07:21:28.389Z,9.83
2023-04-18T07:23:55.446Z,9.67
2023-04-18T07:26:22.330Z,10.00
2023-04-18T07:28:49.587Z,9.50
2023-04-18T07:31:16.556Z,10.13
2023-04-18T07:33:43.657Z,9.87
2023-04-18T07:36:10.913Z,9.10
2023-04-18T07:38:37.758Z,9.63
2023-04-18T07:41:04.443Z,9.63
2023-04-18T07:43:31.148Z,9.90
2023-04-18T07:45:57.834Z,9.90
2023-04-18T07:48:27.380Z,9.43
2023-04-18T07:50:54.270Z,10.03
2023-04-18T07:53:21.140Z,9.70
2023-04-18T07:55:47.880Z,9.60
2023-04-18T07:58:14.673Z,10.60
2023-04-18T08:00:43.816Z,9.30
2023-04-18T08:03:12.334Z,9.17
2023-04-18T08:05:40.635Z,8.97
2023-04-18T08:08:08.918Z,9.00
2023-04-18T08:10:36.751Z,9.30
2023-04-18T08:13:04.138Z,9.13
2023-04-18T08:15:32.737Z,9.30
2023-04-18T08:18:01.251Z,9.10
2023-04-18T08:20:28.222Z,9.40
2023-04-18T08:25:24.408Z,8.40
2023-04-18T08:27:51.168Z,8.47
2023-04-18T08:30:17.888Z,8.53
2023-04-18T08:32:44.647Z,8.70
2023-04-18T08:35:11.646Z,9.07
2023-04-18T08:37:39.277Z,9.30
2023-04-18T08:40:07.335Z,9.60
2023-04-18T08:42:35.385Z,9.30
2023-04-18T08:45:02.697Z,9.47
2023-04-18T08:47:29.980Z,9.33
2023-04-18T08:49:57.728Z,9.20
2023-04-18T08:52:28.353Z,8.67
2023-04-18T08:54:55.342Z,9.60
2023-04-18T08:57:23.781Z,8.40
2023-04-18T08:59:51.213Z,8.57
2023-04-18T09:02:19.426Z,8.63
2023-04-18T09:04:49.248Z,8.20
2023-04-18T09:07:17.303Z,7.97
2023-04-18T09:09:55.087Z,7.93
2023-04-18T09:12:24.507Z,8.17
2023-04-18T09:14:59.745Z,9.10
2023-04-18T09:17:38.435Z,7.93
2023-04-18T09:20:06.375Z,8.53
2023-04-18T09:22:54.309Z,8.37
2023-04-18T09:25:35.797Z,7.43
2023-04-18T09:28:04.839Z,7.87
2023-04-18T09:30:33.108Z,7.10
2023-04-18T09:33:01.582Z,7.80
2023-04-18T09:35:28.685Z,7.30
2023-04-18T09:37:55.706Z,7.40
2023-04-18T09:40:23.708Z,7.30
2023-04-18T09:42:56.986Z,7.07
2023-04-18T09:45:24.907Z,7.33
2023-04-18T09:47:52.786Z,7.10
2023-04-18T09:50:21.073Z,7.90
2023-04-18T09:52:48.714Z,7.53
2023-04-18T09:55:19.416Z,6.87
2023-04-18T09:57:48.786Z,7.27
2023-04-18T10:00:27.246Z,7.33
2023-04-18T10:03:10.938Z,7.13
2023-04-18T10:05:40.543Z,6.97
2023-04-18T10:08:09.600Z,6.63
2023-04-18T10:10:38.755Z,6.87
2023-04-18T10:13:08.418Z,6.33
2023-04-18T10:15:35.256Z,6.93
2023-04-18T10:18:06.961Z,6.70
2023-04-18T10:20:35.448Z,7.47
2023-04-18T10:23:38.775Z,6.80
2023-04-18T10:26:07.413Z,7.47
2023-04-18T10:28:53.435Z,6.70
2023-04-18T10:31:24.766Z,7.17
2023-04-18T10:34:04.776Z,7.03
2023-04-18T10:36:33.126Z,6.30
2023-04-18T10:39:21.887Z,5.83
2023-04-18T10:41:50.935Z,6.50
2023-04-18T10:44:22.252Z,5.73
2023-04-18T10:46:51.981Z,6.67
2023-04-18T10:49:19.944Z,6.03
2023-04-18T10:52:00.488Z,6.47
2023-04-18T10:54:42.135Z,5.93
2023-04-18T10:57:10.086Z,6.60
2023-04-18T10:59:43.014Z,6.17
2023-04-18T11:02:28.876Z,6.43
2023-04-18T11:05:01.784Z,5.83
2023-04-18T11:07:36.106Z,6.07
2023-04-18T11:10:04.266Z,5.67
2023-04-18T11:12:34.827Z,4.90
2023-04-18T11:15:09.417Z,5.70
2023-04-18T11:17:36.299Z,5.37
2023-04-18T11:20:14.756Z,5.40
2023-04-18T11:22:54.657Z,5.70
2023-04-18T11:25:25.425Z,5.30
2023-04-18T11:27:52.418Z,5.43
2023-04-18T11:30:19.242Z,4.63
2023-04-18T11:32:46.429Z,5.10
2023-04-18T11:35:15.567Z,5.67
2023-04-18T11:37:43.290Z,5.30
2023-04-18T11:40:10.446Z,6.07
2023-04-18T11:42:39.243Z,5.20
2023-04-18T11:45:13.797Z,4.97
2023-04-18T11:47:42.840Z,4.93
2023-04-18T11:50:12.285Z,5.30
2023-04-18T11:52:41.325Z,4.83
2023-04-18T11:55:19.535Z,4.73
2023-04-18T11:57:59.733Z,4.63
2023-04-18T12:00:34.132Z,5.17
2023-04-18T12:03:04.574Z,4.70
2023-04-18T12:05:37.013Z,4.57
2023-04-18T12:08:17.284Z,5.23
2023-04-18T12:10:50.442Z,4.73
2023-04-18T12:13:17.924Z,4.60
2023-04-18T12:15:46.743Z,4.33
2023-04-18T12:18:16.661Z,4.87
2023-04-18T12:20:50.529Z,5.07
2023-04-18T12:23:30.611Z,4.57
2023-04-18T12:26:07.745Z,4.47
2023-04-18T12:28:37.741Z,4.50
2023-04-18T12:31:07.935Z,5.17
2023-04-18T12:33:36.869Z,5.17
2023-04-18T12:36:05.502Z,4.90
2023-04-18T12:38:32.271Z,4.40
2023-04-18T12:40:59.011Z,5.33
2023-04-18T12:43:25.873Z,4.73
2023-04-18T12:45:52.826Z,4.23
2023-04-18T12:48:19.629Z,4.90
2023-04-18T12:50:46.324Z,4.53
2023-04-18T12:53:12.986Z,4.93
2023-04-18T12:55:39.724Z,5.10
2023-04-18T12:58:06.376Z,5.20
2023-04-18T13:00:33.189Z,5.20
2023-04-18T13:03:00.223Z,4.90
2023-04-18T13:05:31.651Z,4.73
2023-04-18T13:08:15.248Z,4.47
2023-04-18T13:10:43.496Z,4.90
2023-04-18T13:13:10.256Z,5.00
2023-04-18T13:15:37.136Z,4.90
2023-04-18T13:18:06.328Z,5.07
2023-04-18T13:20:34.621Z,5.60
2023-04-18T13:23:04.658Z,5.27
2023-04-18T13:25:31.487Z,5.67
2023-04-18T13:27:58.650Z,5.10
2023-04-18T13:30:25.640Z,5.60
2023-04-18T13:32:52.503Z,5.53
2023-04-18T13:35:19.228Z,5.10
2023-04-18T13:37:46.311Z,4.97
2023-04-18T13:40:13.416Z,4.90
2023-04-18T13:42:40.097Z,5.77
2023-04-18T13:45:07.508Z,6.00
2023-04-18T13:47:34.846Z,5.80
2023-04-18T13:50:01.713Z,5.13
2023-04-18T13:52:28.523Z,5.70
2023-04-18T13:54:55.214Z,5.07
2023-04-18T13:57:23.149Z,5.70
2023-04-18T13:59:49.868Z,5.30
2023-04-18T14:02:16.744Z,5.93
2023-04-18T14:04:43.721Z,5.20
2023-04-18T14:07:10.800Z,5.50
2023-04-18T14:09:37.456Z,5.50
2023-04-18T14:12:04.644Z,5.23
2023-04-18T14:14:31.335Z,5.73
2023-04-18T14:16:58.041Z,6.00
2023-04-18T14:19:25.045Z,5.47
2023-04-18T14:21:51.777Z,6.60
2023-04-18T14:24:18.545Z,5.50
2023-04-18T14:26:45.174Z,5.80
2023-04-18T14:29:12.090Z,5.50
2023-04-18T14:31:39.072Z,5.80
2023-04-18T14:34:06.600Z,5.97
2023-04-18T14:36:33.214Z,5.57
2023-04-18T14:39:00.046Z,5.53
2023-04-18T14:41:26.879Z,6.07
2023-04-18T14:43:53.585Z,5.03
2023-04-18T14:46:21.460Z,5.63
2023-04-18T14:48:48.202Z,5.10
2023-04-18T14:51:16.646Z,4.93
2023-04-18T14:53:44.579Z,5.07
2023-04-18T14:56:11.255Z,5.23
2023-04-18T14:58:37.985Z,5.17
2023-04-18T15:01:05.060Z,5.47
2023-04-18T15:03:32.096Z,5.17
2023-04-18T15:05:59.014Z,5.13
2023-04-18T15:08:25.858Z,4.77
2023-04-18T15:10:52.490Z,5.33
2023-04-18T15:13:19.668Z,4.93
2023-04-18T15:15:53.505Z,4.90
2023-04-18T15:18:20.567Z,4.70
2023-04-18T15:20:47.590Z,4.80
2023-04-18T15:23:14.762Z,4.43
2023-04-18T15:25:42.119Z,4.37
2023-04-18T15:28:09.241Z,4.93
2023-04-18T15:30:36.151Z,4.70
2023-04-18T15:33:02.931Z,4.57
2023-04-18T15:35:30.018Z,4.90
2023-04-18T15:37:57.484Z,5.50
2023-04-18T15:40:24.573Z,5.53
2023-04-18T15:42:53.532Z,5.50
2023-04-18T15:45:21.406Z,5.70
2023-04-18T15:47:48.469Z,5.53
2023-04-18T15:50:16.487Z,6.27
2023-04-18T15:52:44.091Z,5.47
2023-04-18T15:55:13.229Z,5.80
2023-04-18T15:57:41.746Z,5.93
2023-04-18T16:00:17.663Z,5.60
2023-04-18T16:02:45.617Z,6.00
2023-04-18T16:05:13.126Z,5.30
2023-04-18T16:07:40.713Z,5.63
2023-04-18T16:10:12.817Z,5.17
2023-04-18T16:12:40.507Z,5.33
2023-04-18T16:15:09.296Z,4.67
2023-04-18T16:17:37.443Z,5.20
2023-04-18T16:20:09.249Z,5.00
2023-04-18T16:22:37.061Z,5.40
2023-04-18T16:25:04.747Z,4.83
2023-04-18T16:27:31.515Z,4.77
2023-04-18T16:29:58.219Z,5.37
2023-04-18T16:32:25.073Z,5.37
2023-04-18T16:34:51.826Z,5.20
2023-04-18T16:37:18.585Z,5.30
2023-04-18T16:39:45.417Z,5.23
2023-04-18T16:42:13.354Z,4.93
2023-04-18T16:44:41.570Z,4.97
2023-04-18T16:47:08.527Z,4.67
2023-04-18T16:49:35.377Z,5.50
2023-04-18T16:52:02.248Z,5.50
2023-04-18T16:54:29.494Z,5.50
2023-04-18T16:56:57.032Z,5.57
2023-04-18T16:59:23.796Z,5.13
2023-04-18T17:01:50.733Z,5.37
2023-04-18T17:04:18.338Z,5.87
2023-04-18T17:06:45.309Z,5.67
2023-04-18T17:09:13.647Z,6.00
2023-04-18T17:11:41.396Z,6.80
2023-04-18T17:14:08.918Z,5.83
2023-04-18T17:16:39.519Z,5.63
2023-04-18T17:19:06.503Z,5.77
2023-04-18T17:21:37.621Z,5.87
2023-04-18T17:24:06.713Z,5.83
2023-04-18T17:26:34.937Z,5.57
2023-04-18T17:29:03.576Z,6.00
2023-04-18T17:31:31.337Z,6.67
2023-04-18T17:33:58.176Z,6.97
2023-04-18T17:36:25.040Z,5.93
2023-04-18T17:38:51.748Z,7.07
2023-04-18T17:41:19.731Z,6.83
2023-04-18T17:43:47.222Z,6.93
2023-04-18T17:46:14.829Z,7.33
2023-04-18T17:48:41.638Z,7.47
2023-04-18T17:51:08.307Z,7.10
2023-04-18T17:53:35.081Z,7.47
2023-04-18T17:56:03.506Z,7.30
2023-04-18T17:58:30.438Z,6.93
2023-04-18T18:00:57.141Z,7.70
2023-04-18T18:03:24.299Z,7.33
2023-04-18T18:05:51.869Z,7.20
2023-04-18T18:08:18.626Z,7.37
2023-04-18T18:10:47.192Z,7.90
2023-04-18T18:13:14.084Z,7.60
2023-04-18T18:15:41.181Z,7.07
2023-04-18T18:18:07.884Z,8.20
2023-04-18T18:20:34.710Z,7.67
2023-04-18T18:23:01.873Z,7.47
2023-04-18T18:25:28.712Z,7.50
2023-04-18T18:27:55.508Z,7.70
2023-04-18T18:30:22.260Z,7.77
2023-04-18T18:32:49.736Z,7.33
2023-04-18T18:35:16.586Z,7.53
2023-04-18T18:37:43.340Z,7.80
2023-04-18T18:40:10.535Z,7.60
2023-04-18T18:42:37.382Z,7.77
2023-04-18T18:45:04.583Z,7.40
2023-04-18T18:47:31.643Z,7.47
2023-04-18T18:49:58.316Z,7.80
2023-04-18T18:52:25.444Z,8.00
2023-04-18T18:54:53.069Z,7.20
2023-04-18T18:57:19.740Z,8.33
2023-04-18T18:59:46.852Z,8.33
2023-04-18T19:02:13.583Z,7.93
2023-04-18T19:04:40.643Z,8.03
2023-04-18T19:07:07.698Z,8.63
2023-04-18T19:09:35.202Z,8.67
2023-04-18T19:12:01.873Z,8.63
2023-04-18T19:14:28.527Z,8.23
2023-04-18T19:16:55.963Z,9.27
2023-04-18T19:19:22.705Z,9.00
2023-04-18T19:21:50.135Z,8.47
2023-04-18T19:24:17.592Z,8.60
2023-04-18T19:26:44.353Z,9.03
2023-04-18T19:29:14.096Z,7.50
2023-04-18T19:31:43.544Z,8.10
2023-04-18T19:34:10.947Z,8.80
2023-04-18T19:36:37.610Z,8.60
2023-04-18T19:39:04.375Z,8.73
2023-04-18T19:41:31.073Z,9.37
2023-04-18T19:43:57.824Z,9.60
2023-04-18T19:46:24.611Z,8.77
2023-04-18T19:48:51.360Z,10.00
2023-04-18T19:51:18.123Z,9.33
2023-04-18T19:53:45.399Z,9.07
2023-04-18T19:56:14.264Z,9.00
2023-04-18T19:58:47.052Z,9.03
2023-04-18T20:01:15.820Z,9.00
2023-04-18T20:03:43.099Z,9.10
2023-04-18T20:06:11.081Z,9.47
2023-04-18T20:08:41.676Z,8.80
2023-04-18T20:11:16.372Z,8.50
2023-04-18T20:13:44.328Z,8.43
2023-04-18T20:16:12.435Z,8.60
2023-04-18T20:18:41.661Z,9.30
2023-04-18T20:21:10.877Z,7.93
2023-04-18T20:23:38.182Z,8.53
2023-04-18T20:26:04.892Z,8.87
2023-04-18T20:28:31.964Z,8.33
2023-04-18T20:30:58.747Z,8.47
2023-04-18T20:33:25.529Z,8.80
2023-04-18T20:35:53.731Z,8.33
2023-04-18T20:38:25.835Z,8.53
2023-04-18T20:40:54.256Z,8.63
2023-04-18T20:43:21.597Z,8.43
2023-04-18T20:45:51.754Z,8.47
2023-04-18T20:48:18.727Z,8.87
2023-04-18T20:50:51.413Z,8.20
2023-04-18T20:53:20.782Z,7.33
2023-04-18T20:55:48.427Z,7.53
2023-04-18T20:58:16.448Z,8.37
2023-04-18T21:00:44.638Z,7.37
2023-04-18T21:03:15.620Z,7.37
2023-04-18T21:05:44.268Z,7.60
2023-04-18T21:08:11.475Z,7.53
2023-04-18T21:10:38.340Z,7.17
2023-04-18T21:13:05.123Z,7.67
2023-04-18T21:15:31.818Z,7.43
2023-04-18T21:17:58.709Z,7.03
2023-04-18T21:20:25.434Z,6.90
2023-04-18T21:22:52.065Z,6.90
2023-04-18T21:25:21.218Z,7.13
2023-04-18T21:27:49.391Z,6.73
2023-04-18T21:30:16.119Z,6.07
2023-04-18T21:32:42.750Z,6.00
2023-04-18T21:35:10.025Z,6.00
2023-04-18T21:37:36.701Z,5.70
2023-04-18T21:40:04.569Z,5.43
2023-04-18T21:42:31.222Z,5.80
2023-04-18T21:44:57.869Z,5.17
2023-04-18T21:47:25.906Z,5.40
2023-04-18T21:49:52.662Z,5.70
2023-04-18T21:52:19.455Z,5.00
2023-04-18T21:54:46.265Z,5.87
2023-04-18T21:57:12.904Z,5.10
2023-04-18T21:59:39.546Z,5.73
2023-04-18T22:02:06.346Z,5.03
2023-04-18T22:04:33.912Z,5.07
2023-04-18T22:07:00.929Z,5.70
2023-04-18T22:09:27.686Z,5.37
2023-04-18T22:11:56.970Z,4.90
2023-04-18T22:14:24.918Z,5.07
2023-04-18T22:16:51.902Z,6.00
2023-04-18T22:19:19.293Z,5.10
2023-04-18T22:21:46.201Z,5.90
2023-04-18T22:24:13.115Z,4.40
2023-04-18T22:26:40.833Z,5.90
2023-04-18T22:29:07.607Z,5.73
2023-04-18T22:31:34.252Z,5.27
2023-04-18T22:34:00.943Z,5.33
2023-04-18T22:36:27.798Z,5.00
2023-04-18T22:38:54.470Z,5.87
2023-04-18T22:41:21.306Z,4.27
2023-04-18T22:43:47.994Z,4.13
2023-04-18T22:46:14.673Z,5.07
2023-04-18T22:48:41.303Z,5.03
2023-04-18T22:51:08.041Z,5.00
2023-04-18T22:53:34.662Z,4.53
2023-04-18T22:56:01.277Z,4.60
2023-04-18T22:58:27.968Z,5.43
2023-04-18T23:00:54.838Z,4.63
2023-04-18T23:03:21.752Z,4.50
2023-04-18T23:05:48.572Z,4.70
2023-04-18T23:08:15.450Z,4.70
2023-04-18T23:10:42.133Z,5.13
2023-04-18T23:13:08.756Z,5.03
2023-04-18T23:15:35.764Z,4.90
2023-04-18T23:18:02.487Z,5.13
2023-04-18T23:20:29.230Z,4.87
2023-04-18T23:22:56.104Z,5.00
2023-04-18T23:25:22.877Z,5.10
2023-04-18T23:27:49.717Z,5.33
2023-04-18T23:30:16.394Z,5.30
2023-04-18T23:32:43.176Z,5.23
2023-04-18T23:35:11.327Z,5.50
2023-04-18T23:37:38.038Z,5.37
2023-04-18T23:40:06.855Z,5.17
2023-04-18T23:42:37.165Z,5.23
2023-04-18T23:45:05.847Z,5.30
2023-04-18T23:47:32.722Z,5.43
2023-04-18T23:49:59.473Z,5.63
2023-04-18T23:52:26.112Z,5.87
2023-04-18T23:54:52.936Z,5.50
2023-04-18T23:57:19.591Z,5.53
2023-04-18T23:59:46.302Z,5.27
